Time;durP1;ratioP1;P1;durP2;ratioP2;P2;SDS_P1;SDS_P2;PMS_P1;PMS_P2;Temp;Humidity;BMP_temperature;BMP_pressure;BME280_temperature;BME280_humidity;BME280_pressure;Samples;Min_cycle;Max_cycle;Signal;HPM_P1;HPM_P2
2022/07/12 00:02:07;;;;;;;6.75;2.75;;;21.70;99.90;22.00;98021.00;;;;4992071;28;88233;-60
2022/07/12 00:04:33;;;;;;;7.82;2.65;;;21.70;99.90;21.90;98012.00;;;;4989649;28;87003;-60
2022/07/12 00:07:00;;;;;;;4.88;2.60;;;21.70;99.90;21.90;98017.00;;;;4985973;28;87058;-60
2022/07/12 00:09:26;;;;;;;6.65;2.40;;;21.60;99.90;21.90;98017.00;;;;4987362;28;88254;-60
2022/07/12 00:11:52;;;;;;;6.95;3.10;;;21.70;99.90;21.90;98022.00;;;;4999484;28;87968;-60
2022/07/12 00:14:19;;;;;;;4.03;2.55;;;21.60;99.90;21.90;98030.00;;;;4996737;28;87764;-59
2022/07/12 00:16:45;;;;;;;5.50;2.30;;;21.60;99.90;22.00;98015.00;;;;4984203;28;87110;-59
2022/07/12 00:19:11;;;;;;;4.85;2.85;;;21.60;99.90;22.00;98022.00;;;;4986798;28;89539;-60
2022/07/12 00:21:37;;;;;;;7.80;2.97;;;21.70;99.90;21.90;98016.00;;;;5004172;28;88290;-59
2022/07/12 00:24:03;;;;;;;6.68;3.00;;;21.60;99.90;21.90;98013.00;;;;4982961;28;87752;-60
2022/07/12 00:26:29;;;;;;;9.00;2.97;;;21.60;99.90;21.90;98016.00;;;;4986643;28;86935;-59
2022/07/12 00:28:57;;;;;;;10.30;3.35;;;21.60;99.90;21.90;98014.00;;;;5008960;28;88569;-60
2022/07/12 00:31:23;;;;;;;7.68;2.88;;;21.60;99.90;21.90;98012.00;;;;4997942;28;88444;-60
2022/07/12 00:33:49;;;;;;;9.45;2.85;;;21.60;99.90;21.90;98015.00;;;;4986696;28;87392;-60
2022/07/12 00:36:16;;;;;;;6.45;3.05;;;21.60;99.90;21.90;97995.00;;;;4999398;28;86494;-60
2022/07/12 00:38:42;;;;;;;4.55;2.75;;;21.60;99.90;21.90;97997.00;;;;4999992;28;88210;-60
2022/07/12 00:41:08;;;;;;;9.07;3.38;;;21.60;99.90;21.90;97990.00;;;;4990294;28;87746;-60
2022/07/12 00:43:34;;;;;;;4.25;2.70;;;21.60;99.90;21.90;97981.00;;;;4994688;28;88266;-60
2022/07/12 00:46:01;;;;;;;5.63;3.00;;;21.50;99.90;21.90;97990.00;;;;4995831;28;87490;-60
2022/07/12 00:48:27;;;;;;;5.25;2.70;;;21.60;99.90;21.90;97989.00;;;;4995082;28;87573;-60
2022/07/12 00:50:53;;;;;;;5.20;2.85;;;21.60;99.90;21.90;97970.00;;;;4997090;28;87105;-60
2022/07/12 00:53:23;;;;;;;6.78;3.10;;;21.60;99.90;22.00;97979.00;;;;4987007;28;87513;-60
2022/07/12 00:55:56;;;;;;;6.85;3.72;;;21.70;99.90;22.00;97970.00;;;;4994783;28;87519;-60
2022/07/12 00:58:24;;;;;;;9.80;3.83;;;21.70;99.90;22.00;97952.00;;;;4994156;28;87536;-60
2022/07/12 01:00:50;;;;;;;8.00;3.75;;;21.70;99.90;22.00;97954.00;;;;4989307;28;88376;-60
2022/07/12 01:03:18;;;;;;;11.80;4.07;;;21.70;99.90;22.00;97937.00;;;;4990779;28;87362;-60
2022/07/12 01:05:45;;;;;;;6.88;3.40;;;21.70;99.90;22.10;97936.00;;;;4976575;28;87334;-60
2022/07/12 01:08:12;;;;;;;8.02;3.50;;;21.70;99.90;22.10;97938.00;;;;4985801;28;89597;-60
2022/07/12 01:10:40;;;;;;;5.57;3.53;;;21.70;99.90;22.00;97937.00;;;;4963251;28;89418;-60
2022/07/12 01:13:06;;;;;;;8.00;3.28;;;21.70;99.90;21.90;97931.00;;;;4988308;28;87198;-60
2022/07/12 01:15:33;;;;;;;6.88;2.90;;;21.60;99.90;21.80;97947.00;;;;4992113;28;87236;-60
2022/07/12 01:18:00;;;;;;;4.50;2.92;;;21.50;99.90;21.80;97935.00;;;;4984743;28;88749;-60
2022/07/12 01:20:27;;;;;;;3.92;3.40;;;21.40;99.90;21.60;97938.00;;;;4991294;28;87716;-60
2022/07/12 01:22:57;;;;;;;8.25;2.92;;;21.30;99.90;21.60;97937.00;;;;4984012;28;87581;-59
2022/07/12 01:25:24;;;;;;;4.70;3.05;;;21.20;99.90;21.40;97938.00;;;;4985111;28;86898;-59
2022/07/12 01:27:50;;;;;;;8.18;3.20;;;21.10;99.90;21.40;97932.00;;;;4968871;28;87570;-59
2022/07/12 01:30:17;;;;;;;4.93;3.53;;;21.00;99.90;21.30;97923.00;;;;4965798;28;87302;-59
2022/07/12 01:32:43;;;;;;;6.90;4.00;;;21.00;99.90;21.20;97902.00;;;;4974582;28;87940;-60
2022/07/12 01:35:11;;;;;;;5.25;3.60;;;20.90;99.90;21.20;97898.00;;;;4965968;28;87038;-60
2022/07/12 01:37:40;;;;;;;5.53;3.60;;;20.90;99.90;21.10;97895.00;;;;4981750;28;87617;-59
2022/07/12 01:40:10;;;;;;;11.77;3.92;;;20.80;99.90;21.10;97888.00;;;;4981972;28;87033;-59
2022/07/12 01:42:37;;;;;;;5.72;3.55;;;20.80;99.90;21.00;97877.00;;;;4981669;28;87232;-59
2022/07/12 01:45:06;;;;;;;4.97;3.63;;;20.70;99.90;21.00;97880.00;;;;4989174;28;87371;-59
2022/07/12 01:47:34;;;;;;;7.40;4.10;;;20.70;99.90;21.00;97879.00;;;;4982223;28;87746;-59
2022/07/12 01:50:02;;;;;;;9.20;4.20;;;20.70;99.90;21.00;97877.00;;;;4995494;28;88487;-59
2022/07/12 01:52:29;;;;;;;5.13;3.70;;;20.70;99.90;21.00;97874.00;;;;4961064;28;87168;-60
2022/07/12 01:54:57;;;;;;;9.18;3.70;;;20.70;99.90;21.00;97886.00;;;;4991672;28;87379;-59
2022/07/12 01:57:24;;;;;;;4.63;3.55;;;20.70;99.90;21.00;97882.00;;;;4996261;28;88761;-60
2022/07/12 01:59:51;;;;;;;7.85;4.05;;;20.70;99.90;21.00;97888.00;;;;4964601;28;88221;-59
2022/07/12 02:02:17;;;;;;;5.03;4.05;;;20.70;99.90;21.00;97865.00;;;;5005313;28;87039;-59
2022/07/12 02:04:46;;;;;;;7.65;3.97;;;20.70;99.90;21.00;97858.00;;;;5010579;28;87315;-60
2022/07/12 02:07:12;;;;;;;8.43;3.97;;;20.80;99.90;21.10;97853.00;;;;5008357;28;87562;-60
2022/07/12 02:09:38;;;;;;;6.38;4.68;;;20.80;99.90;21.00;97855.00;;;;5014238;28;87348;-60
2022/07/12 02:12:05;;;;;;;5.80;4.28;;;20.70;99.90;21.00;97852.00;;;;4991893;28;87127;-60
2022/07/12 02:14:31;;;;;;;7.80;4.20;;;20.70;99.90;21.00;97856.00;;;;4988321;28;86315;-59
2022/07/12 02:16:57;;;;;;;5.93;4.03;;;20.70;99.90;21.00;97847.00;;;;4988617;28;87771;-59
2022/07/12 02:19:24;;;;;;;8.60;4.45;;;20.70;99.90;21.00;97845.00;;;;4993688;28;87939;-59
2022/07/12 02:21:50;;;;;;;6.15;4.45;;;20.80;99.90;21.00;97841.00;;;;4984561;28;88676;-59
2022/07/12 02:24:16;;;;;;;6.53;4.22;;;20.80;99.90;21.00;97841.00;;;;4993075;28;87179;-60
2022/07/12 02:26:43;;;;;;;8.25;4.57;;;20.70;99.90;21.00;97849.00;;;;4988597;28;87761;-60
2022/07/12 02:29:09;;;;;;;5.45;4.40;;;20.80;99.90;21.10;97853.00;;;;4986157;28;88481;-60
2022/07/12 02:31:36;;;;;;;7.68;4.75;;;20.80;99.90;21.10;97844.00;;;;4991166;28;87429;-60
2022/07/12 02:34:02;;;;;;;6.53;4.75;;;20.80;99.90;21.20;97856.00;;;;4982100;28;88294;-60
2022/07/12 02:36:28;;;;;;;10.15;4.53;;;20.80;99.90;21.20;97859.00;;;;4989799;28;87023;-60
2022/07/12 02:38:55;;;;;;;8.10;4.35;;;20.90;99.90;21.30;97856.00;;;;4972919;28;87391;-60
2022/07/12 02:41:21;;;;;;;6.20;4.35;;;20.90;99.90;21.30;97864.00;;;;4985701;28;86955;-60
2022/07/12 02:43:47;;;;;;;10.05;4.25;;;21.00;99.90;21.40;97853.00;;;;4989885;28;87051;-61
2022/07/12 02:46:14;;;;;;;5.63;4.25;;;21.10;99.90;21.40;97850.00;;;;4988957;28;89621;-59
2022/07/12 02:48:41;;;;;;;7.70;3.92;;;21.10;99.90;21.50;97851.00;;;;4990061;28;88478;-58
2022/07/12 02:51:08;;;;;;;13.07;5.20;;;21.20;99.90;21.60;97849.00;;;;4993154;28;87152;-60
2022/07/12 02:53:35;;;;;;;6.15;4.10;;;21.20;99.90;21.60;97853.00;;;;4992746;28;87277;-60
2022/07/12 02:56:01;;;;;;;10.20;4.45;;;21.30;99.90;21.60;97852.00;;;;4990373;28;87764;-60
2022/07/12 02:58:27;;;;;;;6.45;4.40;;;21.30;99.90;21.70;97855.00;;;;4986564;28;87270;-60
2022/07/12 03:00:54;;;;;;;7.72;4.60;;;21.40;99.90;21.90;97846.00;;;;4985311;28;87705;-60
2022/07/12 03:03:20;;;;;;;6.40;4.20;;;21.50;99.90;21.90;97860.00;;;;4989433;28;86472;-60
2022/07/12 03:05:46;;;;;;;7.53;4.22;;;21.50;99.90;21.80;97856.00;;;;4990673;28;87589;-60
2022/07/12 03:08:13;;;;;;;10.75;4.82;;;21.50;99.90;21.80;97865.00;;;;4998008;28;87936;-60
2022/07/12 03:10:39;;;;;;;9.88;4.75;;;21.40;99.90;21.60;97861.00;;;;4981212;28;87948;-60
2022/07/12 03:13:06;;;;;;;7.88;4.70;;;21.30;99.90;21.60;97857.00;;;;4991966;28;87227;-57
2022/07/12 03:15:32;;;;;;;9.70;4.57;;;21.20;99.90;21.50;97870.00;;;;4992649;28;87680;-55
2022/07/12 03:18:01;;;;;;;8.98;5.03;;;21.20;99.90;21.60;97873.00;;;;4980740;28;88385;-54
2022/07/12 03:20:31;;;;;;;10.02;4.03;;;21.20;99.90;21.60;97876.00;;;;4987223;28;87089;-61
2022/07/12 03:22:58;;;;;;;11.27;4.32;;;21.30;99.90;21.70;97884.00;;;;4981378;28;87212;-61
2022/07/12 03:25:24;;;;;;;9.98;4.00;;;21.40;99.90;21.80;97865.00;;;;4983050;28;87377;-60
2022/07/12 03:27:51;;;;;;;10.65;4.40;;;21.40;99.90;21.80;97866.00;;;;4986854;28;87836;-60
2022/07/12 03:30:18;;;;;;;7.63;4.28;;;21.40;99.90;21.90;97881.00;;;;5000435;28;87009;-60
2022/07/12 03:32:44;;;;;;;8.93;4.60;;;21.50;99.90;21.80;97875.00;;;;4991050;28;87595;-60
2022/07/12 03:35:10;;;;;;;7.30;4.53;;;21.50;99.90;21.80;97865.00;;;;4982857;28;88428;-60
2022/07/12 03:37:49;;;;;;;9.77;4.72;;;21.40;99.90;21.70;97858.00;;;;5000183;28;89316;-60
2022/07/12 03:40:18;;;;;;;9.55;4.70;;;21.30;99.90;21.60;97864.00;;;;4997862;28;87033;-60
2022/07/12 03:42:45;;;;;;;9.88;4.70;;;21.30;99.90;21.60;97868.00;;;;4990462;28;87868;-56
2022/07/12 03:45:12;;;;;;;11.30;4.50;;;21.30;99.90;21.60;97854.00;;;;5006861;28;87678;-57
2022/07/12 03:47:40;;;;;;;14.52;5.05;;;21.30;99.90;21.70;97850.00;;;;4988063;28;87460;-56
2022/07/12 03:50:12;;;;;;;7.20;4.35;;;21.30;99.90;21.80;97857.00;;;;4984699;28;87071;-60
2022/07/12 03:52:39;;;;;;;8.77;4.55;;;21.50;99.90;22.00;97861.00;;;;4986373;28;86317;-60
2022/07/12 03:55:07;;;;;;;9.43;4.30;;;21.70;99.90;22.20;97867.00;;;;4989311;28;88613;-60
2022/07/12 03:57:33;;;;;;;10.90;4.55;;;21.80;99.90;22.40;97866.00;;;;4996138;28;87416;-59
2022/07/12 03:59:59;;;;;;;7.15;4.45;;;22.00;99.90;22.80;97874.00;;;;4986790;28;88142;-63
2022/07/12 04:02:26;;;;;;;12.70;4.10;;;22.40;99.90;23.30;97872.00;;;;4968124;28;87016;-61
2022/07/12 04:04:52;;;;;;;9.55;4.80;;;22.90;99.90;23.70;97881.00;;;;4988934;28;88604;-62
2022/07/12 04:07:19;;;;;;;9.27;4.53;;;23.20;99.90;24.10;97883.00;;;;4994471;28;87618;-62
2022/07/12 04:09:45;;;;;;;8.43;4.57;;;23.60;99.90;24.50;97898.00;;;;4990420;28;87046;-62
2022/07/12 04:12:11;;;;;;;9.43;4.40;;;23.90;99.90;24.30;97890.00;;;;4988288;28;87382;-62
2022/07/12 04:14:37;;;;;;;8.73;4.38;;;23.70;99.90;24.10;97880.00;;;;4999390;28;87985;-63
2022/07/12 04:17:05;;;;;;;7.32;4.10;;;23.60;99.90;24.10;97894.00;;;;5005438;28;91613;-65
2022/07/12 04:19:33;;;;;;;11.15;4.65;;;23.60;99.90;23.90;97871.00;;;;4988279;28;87193;-61
2022/07/12 04:22:00;;;;;;;10.68;4.47;;;23.40;99.90;23.80;97889.00;;;;4994515;28;87108;-61
2022/07/12 04:24:26;;;;;;;8.68;4.47;;;23.30;99.90;23.80;97892.00;;;;4989837;28;88623;-62
2022/07/12 04:26:53;;;;;;;8.43;4.40;;;23.50;99.90;24.30;97891.00;;;;5005522;28;88292;-61
2022/07/12 04:29:20;;;;;;;7.90;4.10;;;23.70;99.90;24.50;97896.00;;;;4989070;28;87301;-60
2022/07/12 04:31:47;;;;;;;8.40;4.25;;;23.90;99.90;24.80;97884.00;;;;4993606;28;87225;-60
2022/07/12 04:34:19;;;;;;;7.72;4.60;;;24.20;99.90;24.90;97900.00;;;;4987912;28;87573;-60
2022/07/12 04:36:46;;;;;;;11.02;4.80;;;24.20;99.90;24.50;97904.00;;;;4994792;28;87308;-60
2022/07/12 04:39:12;;;;;;;8.93;4.10;;;23.90;99.90;24.10;97896.00;;;;4994263;28;86899;-60
2022/07/12 04:41:39;;;;;;;8.43;4.70;;;23.50;99.90;23.80;97904.00;;;;4987948;28;86637;-60
2022/07/12 04:44:08;;;;;;;8.63;4.50;;;23.30;99.90;23.60;97908.00;;;;4995249;28;87854;-60
2022/07/12 04:46:34;;;;;;;7.15;4.38;;;23.20;99.90;23.40;97901.00;;;;4992853;28;87505;-59
2022/07/12 04:49:01;;;;;;;9.77;4.90;;;22.90;99.90;23.30;97904.00;;;;4993143;28;89105;-60
2022/07/12 04:51:27;;;;;;;8.05;4.55;;;22.80;99.90;23.20;97905.00;;;;4990591;28;87260;-61
2022/07/12 04:53:54;;;;;;;10.95;4.72;;;22.80;99.90;23.20;97916.00;;;;4990154;28;87712;-60
2022/07/12 04:56:20;;;;;;;9.27;4.93;;;22.70;99.90;23.00;97903.00;;;;4993557;28;87044;-61
2022/07/12 04:58:47;;;;;;;8.30;5.03;;;22.60;99.90;22.90;97907.00;;;;4989181;28;87327;-61
2022/07/12 05:01:13;;;;;;;10.43;5.22;;;22.50;99.90;22.80;97912.00;;;;4994385;28;87044;-60
2022/07/12 05:03:39;;;;;;;7.28;5.95;;;22.40;99.90;22.70;97919.00;;;;4995719;28;88097;-59
2022/07/12 05:06:05;;;;;;;9.27;5.93;;;22.30;99.90;22.70;97921.00;;;;4991507;28;88454;-61
2022/07/12 05:08:32;;;;;;;11.57;5.25;;;22.20;99.90;22.60;97917.00;;;;4998194;28;87009;-60
2022/07/12 05:10:58;;;;;;;10.82;5.07;;;22.20;99.90;22.50;97913.00;;;;4986495;28;86909;-60
2022/07/12 05:13:24;;;;;;;11.93;5.03;;;22.20;99.90;22.50;97913.00;;;;4994005;28;88578;-60
2022/07/12 05:15:50;;;;;;;10.73;5.20;;;22.10;99.90;22.50;97915.00;;;;4991819;28;88276;-61
2022/07/12 05:18:16;;;;;;;10.38;5.38;;;22.10;99.90;22.50;97918.00;;;;5002845;28;87030;-61
2022/07/12 05:20:43;;;;;;;9.38;4.95;;;22.10;99.90;22.40;97918.00;;;;5010731;28;87588;-61
2022/07/12 05:23:09;;;;;;;9.50;5.13;;;22.10;99.90;22.40;97918.00;;;;5001046;28;88141;-61
2022/07/12 05:25:35;;;;;;;9.95;5.28;;;22.00;99.90;22.50;97921.00;;;;4982308;28;88471;-61
2022/07/12 05:28:01;;;;;;;10.18;4.93;;;22.10;99.90;22.50;97918.00;;;;4991434;28;86971;-61
2022/07/12 05:30:27;;;;;;;14.30;5.35;;;22.10;99.90;22.50;97931.00;;;;5001276;28;86342;-61
2022/07/12 05:32:53;;;;;;;7.55;4.35;;;22.10;99.90;22.60;97911.00;;;;4991974;28;88814;-61
2022/07/12 05:35:19;;;;;;;10.90;5.13;;;22.10;99.90;22.50;97921.00;;;;5001976;28;87390;-61
2022/07/12 05:37:45;;;;;;;11.55;5.13;;;22.10;99.90;22.50;97931.00;;;;5001694;28;88313;-61
2022/07/12 05:40:12;;;;;;;12.93;6.25;;;22.10;99.90;22.50;97930.00;;;;5001220;28;87062;-60
2022/07/12 05:42:38;;;;;;;11.90;5.57;;;22.10;99.90;22.50;97920.00;;;;4990572;28;88274;-61
2022/07/12 05:45:06;;;;;;;14.15;5.63;;;22.10;99.90;22.30;97905.00;;;;4990445;28;88368;-60
2022/07/12 05:47:32;;;;;;;8.32;5.43;;;21.90;99.90;22.00;97915.00;;;;5001840;28;87327;-60
2022/07/12 05:49:58;;;;;;;7.68;5.30;;;21.70;99.90;21.80;97929.00;;;;4992452;28;86970;-62
2022/07/12 05:55:09;;;;;;;9.63;5.35;;;21.40;99.90;21.60;97927.00;;;;4988890;28;88484;-60
2022/07/12 05:57:36;;;;;;;9.98;5.82;;;21.30;99.90;21.50;97925.00;;;;4986301;28;87452;-60
2022/07/12 06:00:04;;;;;;;13.80;6.75;;;21.20;99.90;21.40;97932.00;;;;5002371;28;87135;-60
2022/07/12 06:02:31;;;;;;;10.77;6.53;;;21.10;99.90;21.20;97923.00;;;;4979409;28;88599;-61
2022/07/12 06:04:57;;;;;;;11.05;7.35;;;21.00;99.90;21.10;97937.00;;;;4957317;28;88405;-61
2022/07/12 06:07:23;;;;;;;10.82;7.32;;;20.90;99.90;21.10;97935.00;;;;4942350;28;86984;-60
2022/07/12 06:09:49;;;;;;;15.00;7.47;;;20.80;99.90;21.10;97934.00;;;;4974609;28;87392;-60
2022/07/12 06:12:15;;;;;;;17.30;7.32;;;20.90;99.90;21.10;97941.00;;;;4977819;28;87723;-60
2022/07/12 06:14:41;;;;;;;13.02;7.75;;;20.80;99.90;21.00;97940.00;;;;4978357;28;87297;-60
2022/07/12 06:17:07;;;;;;;10.80;7.65;;;20.80;99.90;21.00;97939.00;;;;4995548;28;87082;-59
2022/07/12 06:19:34;;;;;;;13.30;7.53;;;20.80;99.90;21.00;97934.00;;;;4994550;28;86334;-59
2022/07/12 06:22:00;;;;;;;11.40;7.55;;;20.70;99.90;21.00;97944.00;;;;4967433;28;89195;-61
2022/07/12 06:24:27;;;;;;;9.43;6.93;;;20.70;99.90;21.00;97946.00;;;;4972909;28;88443;-59
2022/07/12 06:26:53;;;;;;;17.05;8.40;;;20.80;99.90;21.10;97945.00;;;;4985078;28;88508;-59
2022/07/12 06:29:20;;;;;;;13.20;8.05;;;20.90;99.90;21.10;97946.00;;;;4990896;28;87725;-59
2022/07/12 06:31:46;;;;;;;12.02;7.78;;;20.90;99.90;21.20;97944.00;;;;4999698;28;89363;-59
2022/07/12 06:34:12;;;;;;;11.63;8.32;;;20.90;99.90;21.20;97948.00;;;;4985014;28;86992;-59
2022/07/12 06:36:38;;;;;;;12.27;7.95;;;20.90;99.90;21.10;97954.00;;;;4981874;28;87472;-61
2022/07/12 06:39:04;;;;;;;10.35;6.90;;;20.90;99.90;21.20;97946.00;;;;4981343;28;87293;-60
2022/07/12 06:41:30;;;;;;;14.07;6.57;;;20.90;99.90;21.10;97953.00;;;;4992410;28;87644;-60
2022/07/12 06:43:56;;;;;;;12.43;6.47;;;20.90;99.90;21.10;97955.00;;;;4962218;28;89796;-60
2022/07/12 06:46:23;;;;;;;10.65;6.20;;;20.90;99.90;21.10;97962.00;;;;4975198;28;87528;-61
2022/07/12 06:48:49;;;;;;;11.50;6.00;;;20.80;99.90;21.10;97948.00;;;;4980345;28;87187;-61
2022/07/12 06:51:15;;;;;;;12.15;5.75;;;20.80;99.90;21.10;97949.00;;;;4987434;28;88392;-60
2022/07/12 06:53:41;;;;;;;9.70;6.05;;;20.80;99.90;21.10;97958.00;;;;4988809;28;88189;-60
2022/07/12 06:56:07;;;;;;;9.07;5.60;;;20.80;99.90;21.00;97975.00;;;;4991645;28;87136;-60
2022/07/12 06:58:33;;;;;;;13.23;5.75;;;20.70;99.90;21.00;97969.00;;;;4991775;28;87250;-60
2022/07/12 07:01:00;;;;;;;9.85;5.35;;;20.80;99.90;21.10;97959.00;;;;4987713;28;88570;-60
2022/07/12 07:03:26;;;;;;;7.63;5.00;;;20.80;99.90;21.20;97962.00;;;;4986940;28;87477;-60
2022/07/12 07:05:52;;;;;;;12.63;5.25;;;20.90;99.90;21.40;97958.00;;;;4996419;28;87007;-60
2022/07/12 07:08:18;;;;;;;8.00;5.13;;;21.10;99.90;21.50;97955.00;;;;4988369;28;86370;-60
2022/07/12 07:10:44;;;;;;;12.60;5.20;;;21.20;99.90;21.80;97965.00;;;;4993903;28;87530;-60
2022/07/12 07:13:10;;;;;;;13.55;5.82;;;21.50;99.90;22.30;97955.00;;;;4984608;28;87850;-60
2022/07/12 07:15:40;;;;;;;11.98;5.68;;;21.90;99.90;22.70;97961.00;;;;4991038;28;88077;-58
2022/07/12 07:18:07;;;;;;;8.75;4.43;;;22.20;99.90;23.10;97963.00;;;;4998065;28;87271;-57
2022/07/12 07:20:34;;;;;;;9.60;4.68;;;22.80;99.90;23.60;97946.00;;;;4989824;28;87533;-59
2022/07/12 07:23:00;;;;;;;9.13;5.70;;;23.20;99.90;23.80;97939.00;;;;4991712;28;87317;-59
2022/07/12 07:25:26;;;;;;;12.90;5.50;;;23.40;99.90;23.90;97942.00;;;;4990528;28;87409;-61
2022/07/12 07:27:52;;;;;;;9.57;4.78;;;23.50;99.90;23.90;97936.00;;;;4986363;28;88210;-61
2022/07/12 07:33:03;;;;;;;10.70;4.75;;;23.60;99.90;23.90;97942.00;;;;4990758;28;87341;-61
2022/07/12 07:35:29;;;;;;;9.80;5.18;;;23.60;99.90;23.90;97945.00;;;;4986802;28;87007;-59
2022/07/12 07:37:56;;;;;;;9.13;4.90;;;23.60;99.90;23.90;97939.00;;;;4980677;28;87171;-56
2022/07/12 07:40:22;;;;;;;7.80;4.97;;;23.60;99.90;24.00;97948.00;;;;4980597;28;88084;-57
2022/07/12 07:42:48;;;;;;;9.68;4.53;;;23.80;99.90;24.10;97948.00;;;;5007863;28;88261;-58
2022/07/12 07:45:14;;;;;;;8.10;4.97;;;23.90;99.90;24.20;97954.00;;;;4997255;28;87039;-57
2022/07/12 07:47:48;;;;;;;7.55;4.53;;;23.70;99.90;24.20;97961.00;;;;5019912;28;87576;-54
2022/07/12 07:50:15;;;;;;;9.05;4.47;;;23.70;99.90;24.20;97962.00;;;;5003301;28;87715;-56
2022/07/12 07:52:42;;;;;;;5.88;4.35;;;23.70;99.90;24.20;97950.00;;;;4989900;28;88529;-57
2022/07/12 07:55:08;;;;;;;9.82;4.72;;;23.60;99.90;24.10;97984.00;;;;5003122;28;87016;-56
2022/07/12 07:57:34;;;;;;;9.57;4.95;;;23.60;99.90;24.00;97980.00;;;;5005221;28;86595;-52
2022/07/12 08:00:01;;;;;;;7.78;4.72;;;23.50;99.90;23.80;97982.00;;;;5013105;28;89366;-57
2022/07/12 08:02:38;;;;;;;9.63;4.75;;;23.30;99.90;23.70;97979.00;;;;4996493;28;89180;-61
2022/07/12 08:05:05;;;;;;;7.20;4.72;;;23.20;99.90;23.80;97989.00;;;;4988596;28;88044;-59
2022/07/12 08:07:31;;;;;;;10.93;4.68;;;23.30;99.90;24.00;97975.00;;;;4981235;28;87430;-60
2022/07/12 08:09:57;;;;;;;7.35;4.35;;;23.60;99.90;24.50;97981.00;;;;4993382;28;87513;-60
2022/07/12 08:12:23;;;;;;;9.90;4.60;;;24.00;99.90;24.60;97991.00;;;;4996141;28;88440;-61
2022/07/12 08:14:49;;;;;;;8.70;4.55;;;24.10;99.90;24.60;97985.00;;;;4991567;28;86998;-59
2022/07/12 08:17:16;;;;;;;8.77;4.68;;;24.10;99.90;24.70;97979.00;;;;5010853;28;87647;-59
2022/07/12 08:19:42;;;;;;;9.18;4.43;;;24.20;99.90;24.80;97990.00;;;;4994201;28;87453;-59
2022/07/12 08:22:09;;;;;;;8.48;4.55;;;24.30;99.90;25.10;97982.00;;;;4991470;28;87395;-59
2022/07/12 08:24:36;;;;;;;5.22;3.97;;;24.70;99.90;25.40;97990.00;;;;4996601;28;87269;-60
2022/07/12 08:27:02;;;;;;;7.05;4.43;;;24.80;99.90;25.20;97998.00;;;;4990718;28;87824;-59
2022/07/12 08:29:28;;;;;;;6.13;4.15;;;24.60;99.90;24.90;98004.00;;;;4986442;28;89980;-60
2022/07/12 08:31:55;;;;;;;6.43;3.90;;;24.40;99.90;25.00;97988.00;;;;4994152;28;89570;-60
2022/07/12 08:34:21;;;;;;;11.23;4.15;;;24.60;99.90;25.00;97984.00;;;;4992495;28;86890;-59
2022/07/12 08:36:47;;;;;;;7.07;4.00;;;24.60;99.90;25.00;97986.00;;;;4992683;28;88254;-58
2022/07/12 08:39:13;;;;;;;9.93;4.28;;;24.70;99.90;24.90;97993.00;;;;4984984;28;87535;-60
2022/07/12 08:41:39;;;;;;;6.93;3.58;;;24.60;99.90;24.80;97995.00;;;;4989031;28;88186;-60
2022/07/12 08:44:05;;;;;;;7.50;3.50;;;24.40;99.90;24.70;97994.00;;;;4995945;28;87063;-59
2022/07/12 08:46:33;;;;;;;6.75;3.47;;;24.40;99.90;24.70;97990.00;;;;5001113;28;86374;-59
2022/07/12 08:49:07;;;;;;;7.15;3.60;;;24.40;99.90;24.80;97998.00;;;;4993583;28;87292;-59
2022/07/12 08:51:33;;;;;;;9.00;3.90;;;24.40;99.90;24.90;97999.00;;;;4986016;28;87936;-56
2022/07/12 08:54:12;;;;;;;8.18;3.90;;;24.60;99.90;25.00;97990.00;;;;4986424;28;87855;-60
2022/07/12 08:56:43;;;;;;;11.82;3.50;;;24.60;99.90;25.00;98004.00;;;;4986504;28;86927;-59
2022/07/12 08:59:12;;;;;;;9.65;3.53;;;24.70;99.90;25.00;98013.00;;;;4993482;28;87710;-59
2022/07/12 09:01:43;;;;;;;8.13;4.13;;;24.60;99.90;25.30;98003.00;;;;4987364;28;87432;-59
2022/07/12 09:04:15;;;;;;;6.22;3.83;;;24.80;99.90;25.30;97991.00;;;;4991814;28;87574;-58
2022/07/12 09:06:41;;;;;;;5.93;4.10;;;24.90;99.90;25.10;98008.00;;;;4982442;28;87557;-60
2022/07/12 09:09:08;;;;;;;7.63;3.97;;;24.70;99.90;25.20;98010.00;;;;4994296;28;87713;-59
2022/07/12 09:11:39;;;;;;;8.45;4.00;;;24.90;99.90;25.20;98007.00;;;;4997883;28;87167;-59
2022/07/12 09:14:07;;;;;;;5.63;3.53;;;24.80;99.90;25.20;98008.00;;;;4978849;28;87043;-59
2022/07/12 09:16:33;;;;;;;7.22;3.90;;;24.90;99.90;25.40;98030.00;;;;4985973;28;87495;-60
2022/07/12 09:19:17;;;;;;;8.95;4.25;;;25.00;99.90;25.30;98017.00;;;;4995427;28;88053;-60
2022/07/12 09:21:50;;;;;;;9.55;4.40;;;24.80;99.90;25.20;98014.00;;;;4987331;28;88398;-60
2022/07/12 09:24:18;;;;;;;7.68;4.00;;;24.70;99.90;25.10;98028.00;;;;4988792;28;87105;-60
2022/07/12 09:26:46;;;;;;;7.38;4.25;;;24.60;99.90;25.00;98037.00;;;;4998694;28;87134;-61
2022/07/12 09:29:13;;;;;;;6.35;3.75;;;24.50;99.90;25.00;98032.00;;;;4987491;28;87698;-60
2022/07/12 09:37:18;;;;;;;6.43;3.92;;;24.70;99.90;25.40;98044.00;;;;4983014;28;86552;-60
2022/07/12 09:39:44;;;;;;;8.70;4.20;;;24.90;99.90;25.50;98042.00;;;;4982348;28;87775;-61
2022/07/12 09:42:12;;;;;;;6.65;4.10;;;25.00;99.90;25.80;98039.00;;;;4988734;28;87715;-60
2022/07/12 09:44:40;;;;;;;8.60;3.78;;;25.40;99.90;25.90;98050.00;;;;4996000;28;88210;-60
2022/07/12 09:47:15;;;;;;;6.32;3.78;;;25.40;99.90;25.70;98043.00;;;;4993955;28;87094;-61
2022/07/12 09:49:45;;;;;;;6.43;3.70;;;25.20;99.90;25.50;98058.00;;;;5008046;28;87792;-64
2022/07/12 09:52:21;;;;;;;7.45;3.83;;;24.90;99.90;25.30;98053.00;;;;4995059;28;87878;-63
2022/07/12 09:54:50;;;;;;;8.10;3.72;;;24.80;99.90;25.30;98059.00;;;;4990211;28;87076;-64
2022/07/12 09:57:30;;;;;;;6.53;3.40;;;24.80;99.90;25.50;98043.00;;;;4994843;28;88731;-63
2022/07/12 09:59:59;;;;;;;9.15;3.15;;;25.00;99.90;25.70;98064.00;;;;4991020;28;88620;-64
2022/07/12 10:02:25;;;;;;;6.93;2.70;;;25.10;99.90;25.80;98067.00;;;;4995487;28;86541;-64
2022/07/12 10:04:53;;;;;;;9.90;2.90;;;25.30;99.90;25.90;98058.00;;;;4990763;28;87712;-63
2022/07/12 10:07:19;;;;;;;6.95;2.97;;;25.50;99.90;26.10;98066.00;;;;4981044;28;87046;-64
2022/07/12 10:09:53;;;;;;;5.22;2.42;;;25.70;99.90;26.30;98079.00;;;;4995178;28;88601;-64
2022/07/12 10:12:22;;;;;;;5.60;1.85;;;25.80;99.90;26.10;98079.00;;;;4976445;28;88663;-62
2022/07/12 10:15:10;;;;;;;6.32;2.05;;;25.70;99.90;25.90;98067.00;;;;4992483;28;87046;-62
2022/07/12 10:17:38;;;;;;;6.03;1.83;;;25.40;99.90;25.80;98077.00;;;;4996620;28;87086;-62
2022/07/12 10:20:24;;;;;;;4.10;1.33;;;25.40;99.90;25.70;98083.00;;;;4975115;28;88915;-62
2022/07/12 10:22:54;;;;;;;2.90;1.20;;;25.20;99.90;25.60;98090.00;;;;4989015;28;87203;-62
2022/07/12 10:25:33;;;;;;;3.53;0.90;;;25.20;99.90;25.40;98075.00;;;;4997405;28;86910;-63
2022/07/12 10:28:01;;;;;;;2.08;1.00;;;25.00;99.90;25.20;98087.00;;;;4994709;28;86714;-62
2022/07/12 10:30:29;;;;;;;6.68;1.75;;;24.90;99.90;25.20;98098.00;;;;4995494;28;89192;-61
2022/07/12 10:32:59;;;;;;;5.78;1.60;;;24.90;99.90;25.30;98094.00;;;;4993055;28;87367;-62
2022/07/12 10:35:31;;;;;;;4.32;1.20;;;24.90;99.90;25.30;98106.00;;;;4999390;28;87924;-63
2022/07/12 10:38:12;;;;;;;4.70;1.30;;;25.00;99.90;25.20;98110.00;;;;5001664;28;87411;-62
2022/07/12 10:40:40;;;;;;;12.70;1.15;;;24.80;99.90;25.10;98113.00;;;;4999990;28;87397;-63
2022/07/12 10:43:07;;;;;;;2.53;1.00;;;24.80;99.90;25.10;98108.00;;;;4988445;28;88429;-62
2022/07/12 10:45:40;;;;;;;2.72;1.50;;;24.80;99.90;25.20;98122.00;;;;4988284;28;87521;-60
2022/07/12 10:48:20;;;;;;;3.60;1.10;;;24.80;99.90;25.10;98120.00;;;;4981287;28;87300;-60
2022/07/12 10:50:48;;;;;;;4.18;1.13;;;24.80;99.90;25.20;98112.00;;;;4989389;28;87719;-66
2022/07/12 10:53:34;;;;;;;15.38;1.60;;;24.80;99.90;25.30;98128.00;;;;4982048;28;87020;-61
2022/07/12 10:56:24;;;;;;;5.40;1.00;;;24.80;99.90;25.30;98127.00;;;;4995013;28;87118;-60
2022/07/12 10:58:57;;;;;;;1.30;1.00;;;24.80;99.90;25.20;98122.00;;;;4991030;28;87193;-61
2022/07/12 11:01:28;;;;;;;3.80;1.40;;;24.70;99.90;25.10;98134.00;;;;4978796;28;90102;-61
2022/07/12 11:04:09;;;;;;;8.48;1.52;;;24.60;99.90;25.10;98125.00;;;;4988683;28;89713;-61
2022/07/12 11:06:40;;;;;;;2.35;1.20;;;24.70;99.90;25.20;98128.00;;;;4987902;28;91616;-63